TAF KIPT
AMD KIPT 082133Z 0822/0918 29010KT 4SM -SN OVC030 FM090200 28006KT P6SM BKN030 FM091300 20003KT P6SM SCT040=
METAR KIPT
WC KIPT
WS KIPT
WV KIPT